sensor_id;sensor_type;location;lat;lon;timestamp;temperature;humidity
1205;DHT22;592;48.764;9.174;2022-12-11T00:01:56;-1.20;99.90
1205;DHT22;592;48.764;9.174;2022-12-11T00:04:23;-1.30;99.90
1205;DHT22;592;48.764;9.174;2022-12-11T00:06:51;-1.50;99.90
1205;DHT22;592;48.764;9.174;2022-12-11T00:09:20;-1.60;99.90
1205;DHT22;592;48.764;9.174;2022-12-11T00:11:47;-1.60;99.90
1205;DHT22;592;48.764;9.174;2022-12-11T00:14:14;-1.70;99.90
1205;DHT22;592;48.764;9.174;2022-12-11T00:16:42;-1.70;99.90
1205;DHT22;592;48.764;9.174;2022-12-11T00:19:09;-1.80;99.90
1205;DHT22;592;48.764;9.174;2022-12-11T00:21:36;-1.80;99.90
1205;DHT22;592;48.764;9.174;2022-12-11T00:24:03;-1.80;99.90
1205;DHT22;592;48.764;9.174;2022-12-11T00:26:30;-1.80;99.90
1205;DHT22;592;48.764;9.174;2022-12-11T00:28:56;-1.70;99.90
1205;DHT22;592;48.764;9.174;2022-12-11T00:31:23;-1.70;99.90
1205;DHT22;592;48.764;9.174;2022-12-11T00:33:52;-1.70;99.90
1205;DHT22;592;48.764;9.174;2022-12-11T00:36:21;-1.80;99.90
1205;DHT22;592;48.764;9.174;2022-12-11T00:38:49;-1.80;99.90
1205;DHT22;592;48.764;9.174;2022-12-11T00:41:16;-1.80;99.90
1205;DHT22;592;48.764;9.174;2022-12-11T00:43:43;-1.70;99.90
1205;DHT22;592;48.764;9.174;2022-12-11T00:46:10;-1.80;99.90
1205;DHT22;592;48.764;9.174;2022-12-11T00:48:37;-1.70;99.90
1205;DHT22;592;48.764;9.174;2022-12-11T00:51:06;-1.50;99.90
1205;DHT22;592;48.764;9.174;2022-12-11T00:53:33;-1.50;99.90
1205;DHT22;592;48.764;9.174;2022-12-11T00:56:00;-1.50;99.90
1205;DHT22;592;48.764;9.174;2022-12-11T00:58:27;-1.70;99.90
1205;DHT22;592;48.764;9.174;2022-12-11T01:00:53;-1.80;99.90
1205;DHT22;592;48.764;9.174;2022-12-11T01:03:20;-1.60;99.90
1205;DHT22;592;48.764;9.174;2022-12-11T01:05:51;-1.60;99.90
1205;DHT22;592;48.764;9.174;2022-12-11T01:08:19;-1.60;99.90
1205;DHT22;592;48.764;9.174;2022-12-11T01:10:46;-1.60;99.90
1205;DHT22;592;48.764;9.174;2022-12-11T01:13:12;-1.70;99.90
1205;DHT22;592;48.764;9.174;2022-12-11T01:15:41;-1.60;99.90
1205;DHT22;592;48.764;9.174;2022-12-11T01:18:08;-1.50;99.90
1205;DHT22;592;48.764;9.174;2022-12-11T01:20:36;-1.40;99.90
1205;DHT22;592;48.764;9.174;2022-12-11T01:23:03;-1.50;99.90
1205;DHT22;592;48.764;9.174;2022-12-11T01:25:32;-1.40;99.90
1205;DHT22;592;48.764;9.174;2022-12-11T01:28:03;-1.30;99.90
1205;DHT22;592;48.764;9.174;2022-12-11T01:30:30;-1.20;99.90
1205;DHT22;592;48.764;9.174;2022-12-11T01:32:56;-1.10;99.90
1205;DHT22;592;48.764;9.174;2022-12-11T01:35:23;-1.10;99.90
1205;DHT22;592;48.764;9.174;2022-12-11T01:37:50;-1.10;99.90
1205;DHT22;592;48.764;9.174;2022-12-11T01:40:22;-1.10;99.90
1205;DHT22;592;48.764;9.174;2022-12-11T01:42:51;-1.00;99.90
1205;DHT22;592;48.764;9.174;2022-12-11T01:45:35;-0.90;99.90
1205;DHT22;592;48.764;9.174;2022-12-11T01:48:07;-0.80;99.90
1205;DHT22;592;48.764;9.174;2022-12-11T01:50:38;-0.80;99.90
1205;DHT22;592;48.764;9.174;2022-12-11T01:53:08;-0.80;99.90
1205;DHT22;592;48.764;9.174;2022-12-11T01:55:37;-1.00;99.90
1205;DHT22;592;48.764;9.174;2022-12-11T01:58:06;-1.10;99.90
1205;DHT22;592;48.764;9.174;2022-12-11T02:00:33;-1.10;99.90
1205;DHT22;592;48.764;9.174;2022-12-11T02:03:00;-1.00;99.90
1205;DHT22;592;48.764;9.174;2022-12-11T02:05:27;-1.10;99.90
1205;DHT22;592;48.764;9.174;2022-12-11T02:07:56;-1.30;99.90
1205;DHT22;592;48.764;9.174;2022-12-11T02:10:31;-1.40;99.90
1205;DHT22;592;48.764;9.174;2022-12-11T02:13:08;-1.40;99.90
1205;DHT22;592;48.764;9.174;2022-12-11T02:15:44;-1.40;99.90
1205;DHT22;592;48.764;9.174;2022-12-11T02:18:17;-1.40;99.90
1205;DHT22;592;48.764;9.174;2022-12-11T02:20:50;-1.30;99.90
1205;DHT22;592;48.764;9.174;2022-12-11T02:23:46;-1.10;99.90
1205;DHT22;592;48.764;9.174;2022-12-11T02:26:29;-1.20;99.90
1205;DHT22;592;48.764;9.174;2022-12-11T02:29:02;-1.10;99.90
1205;DHT22;592;48.764;9.174;2022-12-11T02:31:34;-1.00;99.90
1205;DHT22;592;48.764;9.174;2022-12-11T02:34:08;-0.90;99.90
1205;DHT22;592;48.764;9.174;2022-12-11T02:36:40;-0.90;99.90
1205;DHT22;592;48.764;9.174;2022-12-11T02:39:10;-0.80;99.90
1205;DHT22;592;48.764;9.174;2022-12-11T02:41:38;-0.70;99.90
1205;DHT22;592;48.764;9.174;2022-12-11T02:44:07;-0.60;99.90
1205;DHT22;592;48.764;9.174;2022-12-11T02:46:37;-0.60;99.90
1205;DHT22;592;48.764;9.174;2022-12-11T02:49:06;-0.60;99.90
1205;DHT22;592;48.764;9.174;2022-12-11T02:51:37;-0.70;99.90
1205;DHT22;592;48.764;9.174;2022-12-11T02:54:06;-0.90;99.90
1205;DHT22;592;48.764;9.174;2022-12-11T02:56:39;-1.00;99.90
1205;DHT22;592;48.764;9.174;2022-12-11T02:59:13;-1.10;99.90
1205;DHT22;592;48.764;9.174;2022-12-11T03:01:41;-1.00;99.90
1205;DHT22;592;48.764;9.174;2022-12-11T03:04:08;-0.90;99.90
1205;DHT22;592;48.764;9.174;2022-12-11T03:06:38;-0.90;99.90
1205;DHT22;592;48.764;9.174;2022-12-11T03:09:08;-0.90;99.90
1205;DHT22;592;48.764;9.174;2022-12-11T03:11:35;-0.90;99.90
1205;DHT22;592;48.764;9.174;2022-12-11T03:14:02;-0.80;99.90
1205;DHT22;592;48.764;9.174;2022-12-11T03:16:34;-0.80;99.90
1205;DHT22;592;48.764;9.174;2022-12-11T03:19:09;-0.70;99.90
1205;DHT22;592;48.764;9.174;2022-12-11T03:21:44;-0.60;99.90
1205;DHT22;592;48.764;9.174;2022-12-11T03:24:14;-0.60;99.90
1205;DHT22;592;48.764;9.174;2022-12-11T03:26:47;-0.60;99.90
1205;DHT22;592;48.764;9.174;2022-12-11T03:29:18;-0.50;99.90
1205;DHT22;592;48.764;9.174;2022-12-11T03:31:53;-0.60;99.90
1205;DHT22;592;48.764;9.174;2022-12-11T03:34:24;-0.60;99.90
1205;DHT22;592;48.764;9.174;2022-12-11T03:36:53;-0.60;99.90
1205;DHT22;592;48.764;9.174;2022-12-11T03:39:25;-0.60;99.90
1205;DHT22;592;48.764;9.174;2022-12-11T03:41:53;-0.60;99.90
1205;DHT22;592;48.764;9.174;2022-12-11T03:44:21;-0.60;99.90
1205;DHT22;592;48.764;9.174;2022-12-11T03:46:52;-0.50;99.90
1205;DHT22;592;48.764;9.174;2022-12-11T03:49:23;-0.50;99.90
1205;DHT22;592;48.764;9.174;2022-12-11T03:51:53;-0.40;99.90
1205;DHT22;592;48.764;9.174;2022-12-11T03:54:22;-0.40;99.90
1205;DHT22;592;48.764;9.174;2022-12-11T03:56:50;-0.40;99.90
1205;DHT22;592;48.764;9.174;2022-12-11T03:59:19;-0.40;99.90
1205;DHT22;592;48.764;9.174;2022-12-11T04:01:45;-0.40;99.90
1205;DHT22;592;48.764;9.174;2022-12-11T04:04:13;-0.40;99.90
1205;DHT22;592;48.764;9.174;2022-12-11T04:06:40;-0.40;99.90
1205;DHT22;592;48.764;9.174;2022-12-11T04:09:07;-0.40;99.90
1205;DHT22;592;48.764;9.174;2022-12-11T04:11:34;-0.40;99.90
1205;DHT22;592;48.764;9.174;2022-12-11T04:14:01;-0.40;99.90
1205;DHT22;592;48.764;9.174;2022-12-11T04:16:45;-0.40;99.90
1205;DHT22;592;48.764;9.174;2022-12-11T04:19:13;-0.40;99.90
1205;DHT22;592;48.764;9.174;2022-12-11T04:21:58;-0.40;99.90
1205;DHT22;592;48.764;9.174;2022-12-11T04:24:54;-0.50;99.90
1205;DHT22;592;48.764;9.174;2022-12-11T04:27:20;-0.50;99.90
1205;DHT22;592;48.764;9.174;2022-12-11T04:30:08;-0.50;99.90
1205;DHT22;592;48.764;9.174;2022-12-11T04:32:36;-0.40;99.90
1205;DHT22;592;48.764;9.174;2022-12-11T04:35:06;-0.50;99.90
1205;DHT22;592;48.764;9.174;2022-12-11T04:37:33;-0.50;99.90
1205;DHT22;592;48.764;9.174;2022-12-11T04:40:00;-0.60;99.90
1205;DHT22;592;48.764;9.174;2022-12-11T04:42:26;-0.60;99.90
1205;DHT22;592;48.764;9.174;2022-12-11T04:44:53;-0.60;99.90
1205;DHT22;592;48.764;9.174;2022-12-11T04:47:20;-0.60;99.90
1205;DHT22;592;48.764;9.174;2022-12-11T04:49:47;-0.60;99.90
1205;DHT22;592;48.764;9.174;2022-12-11T04:52:16;-0.70;99.90
1205;DHT22;592;48.764;9.174;2022-12-11T04:54:43;-0.70;99.90
1205;DHT22;592;48.764;9.174;2022-12-11T04:57:09;-0.80;99.90
1205;DHT22;592;48.764;9.174;2022-12-11T04:59:36;-0.80;99.90
1205;DHT22;592;48.764;9.174;2022-12-11T05:02:03;-0.80;99.90
1205;DHT22;592;48.764;9.174;2022-12-11T05:04:31;-0.80;99.90
1205;DHT22;592;48.764;9.174;2022-12-11T05:06:58;-0.80;99.90
1205;DHT22;592;48.764;9.174;2022-12-11T05:09:26;-0.80;99.90
1205;DHT22;592;48.764;9.174;2022-12-11T05:11:54;-0.90;99.90
1205;DHT22;592;48.764;9.174;2022-12-11T05:14:21;-0.80;99.90
1205;DHT22;592;48.764;9.174;2022-12-11T05:16:48;-0.80;99.90
1205;DHT22;592;48.764;9.174;2022-12-11T05:19:15;-0.70;99.90
1205;DHT22;592;48.764;9.174;2022-12-11T05:21:42;-0.70;99.90
1205;DHT22;592;48.764;9.174;2022-12-11T05:24:09;-0.80;99.90
1205;DHT22;592;48.764;9.174;2022-12-11T05:26:37;-0.90;99.90
1205;DHT22;592;48.764;9.174;2022-12-11T05:29:04;-0.90;99.90
1205;DHT22;592;48.764;9.174;2022-12-11T05:31:30;-0.90;99.90
1205;DHT22;592;48.764;9.174;2022-12-11T05:33:57;-1.00;99.90
1205;DHT22;592;48.764;9.174;2022-12-11T05:36:26;-1.00;99.90
1205;DHT22;592;48.764;9.174;2022-12-11T05:38:53;-1.00;99.90
1205;DHT22;592;48.764;9.174;2022-12-11T05:41:22;-1.10;99.90
1205;DHT22;592;48.764;9.174;2022-12-11T05:43:51;-1.10;99.90
1205;DHT22;592;48.764;9.174;2022-12-11T05:46:20;-1.10;99.90
1205;DHT22;592;48.764;9.174;2022-12-11T05:48:48;-1.20;99.90
1205;DHT22;592;48.764;9.174;2022-12-11T05:51:16;-1.30;99.90
1205;DHT22;592;48.764;9.174;2022-12-11T05:53:45;-1.30;99.90
1205;DHT22;592;48.764;9.174;2022-12-11T05:56:13;-1.40;99.90
1205;DHT22;592;48.764;9.174;2022-12-11T05:58:41;-1.40;99.90
1205;DHT22;592;48.764;9.174;2022-12-11T06:01:11;-1.40;99.90
1205;DHT22;592;48.764;9.174;2022-12-11T06:03:38;-1.40;99.90
1205;DHT22;592;48.764;9.174;2022-12-11T06:06:06;-1.40;99.90
1205;DHT22;592;48.764;9.174;2022-12-11T06:08:33;-1.40;99.90
1205;DHT22;592;48.764;9.174;2022-12-11T06:11:00;-1.40;99.90
1205;DHT22;592;48.764;9.174;2022-12-11T06:13:27;-1.50;99.90
1205;DHT22;592;48.764;9.174;2022-12-11T06:15:54;-1.50;99.90
1205;DHT22;592;48.764;9.174;2022-12-11T06:18:22;-1.50;99.90
1205;DHT22;592;48.764;9.174;2022-12-11T06:20:49;-1.50;99.90
1205;DHT22;592;48.764;9.174;2022-12-11T06:23:16;-1.50;99.90
1205;DHT22;592;48.764;9.174;2022-12-11T06:25:42;-1.50;99.90
1205;DHT22;592;48.764;9.174;2022-12-11T06:28:09;-1.60;99.90
1205;DHT22;592;48.764;9.174;2022-12-11T06:30:36;-1.60;99.90
1205;DHT22;592;48.764;9.174;2022-12-11T06:33:04;-1.60;99.90
1205;DHT22;592;48.764;9.174;2022-12-11T06:35:32;-1.60;99.90
1205;DHT22;592;48.764;9.174;2022-12-11T06:37:59;-1.50;99.90
1205;DHT22;592;48.764;9.174;2022-12-11T06:40:26;-1.50;99.90
1205;DHT22;592;48.764;9.174;2022-12-11T06:42:53;-1.50;99.90
1205;DHT22;592;48.764;9.174;2022-12-11T06:45:20;-1.50;99.90
1205;DHT22;592;48.764;9.174;2022-12-11T06:47:46;-1.50;99.90
1205;DHT22;592;48.764;9.174;2022-12-11T06:50:13;-1.50;99.90
1205;DHT22;592;48.764;9.174;2022-12-11T06:52:41;-1.50;99.90
1205;DHT22;592;48.764;9.174;2022-12-11T06:55:08;-1.50;99.90
1205;DHT22;592;48.764;9.174;2022-12-11T06:57:35;-1.50;99.90
1205;DHT22;592;48.764;9.174;2022-12-11T07:00:03;-1.50;99.90
1205;DHT22;592;48.764;9.174;2022-12-11T07:02:30;-1.60;99.90
1205;DHT22;592;48.764;9.174;2022-12-11T07:04:56;-1.50;99.90
1205;DHT22;592;48.764;9.174;2022-12-11T07:07:23;-1.50;99.90
1205;DHT22;592;48.764;9.174;2022-12-11T07:09:51;-1.50;99.90
1205;DHT22;592;48.764;9.174;2022-12-11T07:12:18;-1.50;99.90
1205;DHT22;592;48.764;9.174;2022-12-11T07:14:45;-1.50;99.90
1205;DHT22;592;48.764;9.174;2022-12-11T07:17:12;-1.60;99.90
1205;DHT22;592;48.764;9.174;2022-12-11T07:19:39;-1.90;99.90
1205;DHT22;592;48.764;9.174;2022-12-11T07:22:06;-2.10;99.90
1205;DHT22;592;48.764;9.174;2022-12-11T07:24:32;-2.20;99.90
1205;DHT22;592;48.764;9.174;2022-12-11T07:27:00;-2.40;99.90
1205;DHT22;592;48.764;9.174;2022-12-11T07:29:27;-2.50;99.90
1205;DHT22;592;48.764;9.174;2022-12-11T07:31:54;-2.60;99.90
1205;DHT22;592;48.764;9.174;2022-12-11T07:34:21;-2.60;99.90
1205;DHT22;592;48.764;9.174;2022-12-11T07:36:47;-2.60;99.90
1205;DHT22;592;48.764;9.174;2022-12-11T07:39:14;-2.50;99.90
1205;DHT22;592;48.764;9.174;2022-12-11T07:41:41;-2.40;99.90
1205;DHT22;592;48.764;9.174;2022-12-11T07:44:09;-2.30;99.90
1205;DHT22;592;48.764;9.174;2022-12-11T07:46:36;-2.20;99.90
1205;DHT22;592;48.764;9.174;2022-12-11T07:49:04;-2.20;99.90
1205;DHT22;592;48.764;9.174;2022-12-11T07:51:33;-2.10;99.90
1205;DHT22;592;48.764;9.174;2022-12-11T07:54:01;-2.00;99.90
1205;DHT22;592;48.764;9.174;2022-12-11T07:56:30;-1.90;99.90
1205;DHT22;592;48.764;9.174;2022-12-11T07:58:58;-1.80;99.90
1205;DHT22;592;48.764;9.174;2022-12-11T08:01:28;-1.70;99.90
1205;DHT22;592;48.764;9.174;2022-12-11T08:03:55;-1.60;99.90
1205;DHT22;592;48.764;9.174;2022-12-11T08:06:25;-1.50;99.90
1205;DHT22;592;48.764;9.174;2022-12-11T08:08:52;-1.40;99.90
1205;DHT22;592;48.764;9.174;2022-12-11T08:11:19;-1.40;99.90
1205;DHT22;592;48.764;9.174;2022-12-11T08:13:46;-1.30;99.90
1205;DHT22;592;48.764;9.174;2022-12-11T08:16:14;-1.20;99.90
1205;DHT22;592;48.764;9.174;2022-12-11T08:18:43;-1.10;99.90
1205;DHT22;592;48.764;9.174;2022-12-11T08:21:12;-1.00;99.90
1205;DHT22;592;48.764;9.174;2022-12-11T08:23:39;-0.90;99.90
1205;DHT22;592;48.764;9.174;2022-12-11T08:26:08;-0.90;99.90
1205;DHT22;592;48.764;9.174;2022-12-11T08:28:35;-0.90;99.90
1205;DHT22;592;48.764;9.174;2022-12-11T08:31:03;-0.80;99.90
1205;DHT22;592;48.764;9.174;2022-12-11T08:33:30;-0.70;99.90
1205;DHT22;592;48.764;9.174;2022-12-11T08:36:00;-0.80;99.90
1205;DHT22;592;48.764;9.174;2022-12-11T08:38:27;-0.80;99.90
1205;DHT22;592;48.764;9.174;2022-12-11T08:40:54;-0.70;99.90
1205;DHT22;592;48.764;9.174;2022-12-11T08:43:21;-0.70;99.90
1205;DHT22;592;48.764;9.174;2022-12-11T08:45:48;-0.70;99.90
1205;DHT22;592;48.764;9.174;2022-12-11T08:48:15;-0.70;99.90
1205;DHT22;592;48.764;9.174;2022-12-11T08:50:42;-0.60;99.90
1205;DHT22;592;48.764;9.174;2022-12-11T08:53:10;-0.60;99.90
1205;DHT22;592;48.764;9.174;2022-12-11T08:55:37;-0.60;99.90
1205;DHT22;592;48.764;9.174;2022-12-11T08:58:03;-0.50;99.90
1205;DHT22;592;48.764;9.174;2022-12-11T09:00:30;-0.50;99.90
1205;DHT22;592;48.764;9.174;2022-12-11T09:02:57;-0.50;99.90
1205;DHT22;592;48.764;9.174;2022-12-11T09:05:24;-0.40;99.90
1205;DHT22;592;48.764;9.174;2022-12-11T09:07:51;-0.40;99.90
1205;DHT22;592;48.764;9.174;2022-12-11T09:10:19;-0.30;99.90
1205;DHT22;592;48.764;9.174;2022-12-11T09:12:46;-0.30;99.90
1205;DHT22;592;48.764;9.174;2022-12-11T09:15:13;-0.20;99.90
1205;DHT22;592;48.764;9.174;2022-12-11T09:17:40;-0.20;99.90
1205;DHT22;592;48.764;9.174;2022-12-11T09:20:07;-0.20;99.90
1205;DHT22;592;48.764;9.174;2022-12-11T09:22:34;-0.10;99.90
1205;DHT22;592;48.764;9.174;2022-12-11T09:25:01;-0.10;99.90
1205;DHT22;592;48.764;9.174;2022-12-11T09:27:29;0.00;99.90
1205;DHT22;592;48.764;9.174;2022-12-11T09:29:56;0.10;99.90
1205;DHT22;592;48.764;9.174;2022-12-11T09:32:23;0.20;99.90
1205;DHT22;592;48.764;9.174;2022-12-11T09:34:50;0.20;99.90
1205;DHT22;592;48.764;9.174;2022-12-11T09:37:16;0.10;99.90
1205;DHT22;592;48.764;9.174;2022-12-11T09:39:43;0.20;99.90
1205;DHT22;592;48.764;9.174;2022-12-11T09:42:14;0.30;99.90
1205;DHT22;592;48.764;9.174;2022-12-11T09:44:48;0.40;99.90
1205;DHT22;592;48.764;9.174;2022-12-11T09:47:20;0.40;99.90
1205;DHT22;592;48.764;9.174;2022-12-11T09:49:52;0.40;99.90
1205;DHT22;592;48.764;9.174;2022-12-11T09:52:22;0.40;99.90
1205;DHT22;592;48.764;9.174;2022-12-11T09:54:55;0.40;99.90
1205;DHT22;592;48.764;9.174;2022-12-11T09:57:32;0.40;99.90
1205;DHT22;592;48.764;9.174;2022-12-11T10:00:13;0.40;99.90
1205;DHT22;592;48.764;9.174;2022-12-11T10:03:03;0.50;99.90
1205;DHT22;592;48.764;9.174;2022-12-11T10:05:37;0.40;99.90
1205;DHT22;592;48.764;9.174;2022-12-11T10:08:11;0.50;99.90
1205;DHT22;592;48.764;9.174;2022-12-11T10:10:43;0.60;99.90
1205;DHT22;592;48.764;9.174;2022-12-11T10:13:20;0.80;99.90
1205;DHT22;592;48.764;9.174;2022-12-11T10:15:52;0.80;99.90
1205;DHT22;592;48.764;9.174;2022-12-11T10:18:21;0.90;99.90
1205;DHT22;592;48.764;9.174;2022-12-11T10:20:50;1.00;99.90
1205;DHT22;592;48.764;9.174;2022-12-11T10:23:19;1.00;99.90
1205;DHT22;592;48.764;9.174;2022-12-11T10:25:50;1.10;99.90
1205;DHT22;592;48.764;9.174;2022-12-11T10:28:19;1.00;99.90
1205;DHT22;592;48.764;9.174;2022-12-11T10:30:50;1.00;99.90
1205;DHT22;592;48.764;9.174;2022-12-11T10:33:21;1.00;99.90
1205;DHT22;592;48.764;9.174;2022-12-11T10:35:52;1.00;99.90
1205;DHT22;592;48.764;9.174;2022-12-11T10:38:23;1.00;99.90
1205;DHT22;592;48.764;9.174;2022-12-11T10:40:54;1.00;99.90
1205;DHT22;592;48.764;9.174;2022-12-11T10:43:32;1.00;99.90
1205;DHT22;592;48.764;9.174;2022-12-11T10:46:00;1.00;99.90
1205;DHT22;592;48.764;9.174;2022-12-11T10:48:27;1.10;99.90
1205;DHT22;592;48.764;9.174;2022-12-11T10:50:57;1.20;99.90
1205;DHT22;592;48.764;9.174;2022-12-11T10:53:25;1.10;99.90
1205;DHT22;592;48.764;9.174;2022-12-11T10:55:52;1.20;99.90
1205;DHT22;592;48.764;9.174;2022-12-11T10:58:22;1.20;99.90
1205;DHT22;592;48.764;9.174;2022-12-11T11:01:03;1.30;99.90
1205;DHT22;592;48.764;9.174;2022-12-11T11:03:32;1.20;99.90
1205;DHT22;592;48.764;9.174;2022-12-11T11:06:05;1.20;99.90
1205;DHT22;592;48.764;9.174;2022-12-11T11:08:40;1.10;99.90
1205;DHT22;592;48.764;9.174;2022-12-11T11:11:20;1.20;99.90
1205;DHT22;592;48.764;9.174;2022-12-11T11:13:47;1.20;99.90
1205;DHT22;592;48.764;9.174;2022-12-11T11:16:17;1.20;99.90
1205;DHT22;592;48.764;9.174;2022-12-11T11:18:51;0.90;99.90
1205;DHT22;592;48.764;9.174;2022-12-11T11:21:20;0.90;99.90
1205;DHT22;592;48.764;9.174;2022-12-11T11:23:47;1.00;99.90
1205;DHT22;592;48.764;9.174;2022-12-11T11:26:14;1.00;99.90
1205;DHT22;592;48.764;9.174;2022-12-11T11:28:46;1.10;99.90
1205;DHT22;592;48.764;9.174;2022-12-11T11:31:16;1.00;99.90
1205;DHT22;592;48.764;9.174;2022-12-11T11:33:48;1.10;99.90
1205;DHT22;592;48.764;9.174;2022-12-11T11:36:20;1.20;99.90
1205;DHT22;592;48.764;9.174;2022-12-11T11:38:49;1.20;99.90
1205;DHT22;592;48.764;9.174;2022-12-11T11:41:25;1.10;99.90
1205;DHT22;592;48.764;9.174;2022-12-11T11:43:57;1.10;99.90
1205;DHT22;592;48.764;9.174;2022-12-11T11:46:29;1.20;99.90
1205;DHT22;592;48.764;9.174;2022-12-11T11:49:06;1.30;99.90
1205;DHT22;592;48.764;9.174;2022-12-11T11:51:39;1.40;99.90
1205;DHT22;592;48.764;9.174;2022-12-11T11:54:17;1.50;99.90
1205;DHT22;592;48.764;9.174;2022-12-11T11:56:49;1.50;99.90
1205;DHT22;592;48.764;9.174;2022-12-11T11:59:21;1.30;99.90
1205;DHT22;592;48.764;9.174;2022-12-11T12:01:54;1.10;99.90
1205;DHT22;592;48.764;9.174;2022-12-11T12:04:23;1.00;99.90
1205;DHT22;592;48.764;9.174;2022-12-11T12:07:04;1.10;99.90
1205;DHT22;592;48.764;9.174;2022-12-11T12:09:41;1.20;99.90
1205;DHT22;592;48.764;9.174;2022-12-11T12:12:17;1.20;99.90
1205;DHT22;592;48.764;9.174;2022-12-11T12:14:57;1.20;99.90
1205;DHT22;592;48.764;9.174;2022-12-11T12:17:30;1.10;99.90
1205;DHT22;592;48.764;9.174;2022-12-11T12:20:07;1.10;99.90
1205;DHT22;592;48.764;9.174;2022-12-11T12:22:56;1.10;99.90
1205;DHT22;592;48.764;9.174;2022-12-11T12:25:28;1.10;99.90
1205;DHT22;592;48.764;9.174;2022-12-11T12:28:03;1.00;99.90
1205;DHT22;592;48.764;9.174;2022-12-11T12:30:41;1.00;99.90
1205;DHT22;592;48.764;9.174;2022-12-11T12:33:21;1.10;99.90
1205;DHT22;592;48.764;9.174;2022-12-11T12:35:57;1.20;99.90
1205;DHT22;592;48.764;9.174;2022-12-11T12:38:34;1.30;99.90
1205;DHT22;592;48.764;9.174;2022-12-11T12:41:09;1.40;99.90
1205;DHT22;592;48.764;9.174;2022-12-11T12:43:49;1.40;99.90
1205;DHT22;592;48.764;9.174;2022-12-11T12:46:25;1.30;99.90
1205;DHT22;592;48.764;9.174;2022-12-11T12:48:56;1.40;99.90
1205;DHT22;592;48.764;9.174;2022-12-11T12:51:24;1.30;99.90
1205;DHT22;592;48.764;9.174;2022-12-11T12:53:54;1.40;99.90
1205;DHT22;592;48.764;9.174;2022-12-11T12:56:23;1.40;99.90
1205;DHT22;592;48.764;9.174;2022-12-11T12:58:50;1.30;99.90
1205;DHT22;592;48.764;9.174;2022-12-11T13:01:19;1.30;99.90
1205;DHT22;592;48.764;9.174;2022-12-11T13:03:55;1.30;99.90
1205;DHT22;592;48.764;9.174;2022-12-11T13:06:32;1.10;99.90
1205;DHT22;592;48.764;9.174;2022-12-11T13:09:11;0.90;99.90
1205;DHT22;592;48.764;9.174;2022-12-11T13:11:39;0.80;99.90
1205;DHT22;592;48.764;9.174;2022-12-11T13:14:07;0.90;99.90
1205;DHT22;592;48.764;9.174;2022-12-11T13:16:49;0.90;99.90
1205;DHT22;592;48.764;9.174;2022-12-11T13:19:26;0.90;99.90
1205;DHT22;592;48.764;9.174;2022-12-11T13:21:58;0.70;99.90
1205;DHT22;592;48.764;9.174;2022-12-11T13:24:29;0.70;99.90
1205;DHT22;592;48.764;9.174;2022-12-11T13:27:07;0.60;99.90
1205;DHT22;592;48.764;9.174;2022-12-11T13:29:36;0.50;99.90
1205;DHT22;592;48.764;9.174;2022-12-11T13:32:20;0.40;99.90
1205;DHT22;592;48.764;9.174;2022-12-11T13:34:53;0.50;99.90
1205;DHT22;592;48.764;9.174;2022-12-11T13:37:23;0.60;99.90
1205;DHT22;592;48.764;9.174;2022-12-11T13:39:52;0.60;99.90
1205;DHT22;592;48.764;9.174;2022-12-11T13:42:22;0.40;99.90
1205;DHT22;592;48.764;9.174;2022-12-11T13:44:50;0.40;99.90
1205;DHT22;592;48.764;9.174;2022-12-11T13:47:18;0.50;99.90
1205;DHT22;592;48.764;9.174;2022-12-11T13:49:48;0.40;99.90
1205;DHT22;592;48.764;9.174;2022-12-11T13:52:19;0.50;99.90
1205;DHT22;592;48.764;9.174;2022-12-11T13:54:48;0.50;99.90
1205;DHT22;592;48.764;9.174;2022-12-11T13:57:17;0.60;99.90
1205;DHT22;592;48.764;9.174;2022-12-11T13:59:47;0.60;99.90
1205;DHT22;592;48.764;9.174;2022-12-11T14:02:18;0.60;99.90
1205;DHT22;592;48.764;9.174;2022-12-11T14:04:48;0.50;99.90
1205;DHT22;592;48.764;9.174;2022-12-11T14:07:24;0.40;99.90
1205;DHT22;592;48.764;9.174;2022-12-11T14:09:54;0.30;99.90
1205;DHT22;592;48.764;9.174;2022-12-11T14:12:24;0.30;99.90
1205;DHT22;592;48.764;9.174;2022-12-11T14:14:53;0.10;99.90
1205;DHT22;592;48.764;9.174;2022-12-11T14:17:23;0.00;99.90
1205;DHT22;592;48.764;9.174;2022-12-11T14:19:52;-0.20;99.90
1205;DHT22;592;48.764;9.174;2022-12-11T14:22:23;-0.30;99.90
1205;DHT22;592;48.764;9.174;2022-12-11T14:24:51;-0.30;99.90
1205;DHT22;592;48.764;9.174;2022-12-11T14:27:19;-0.40;99.90
1205;DHT22;592;48.764;9.174;2022-12-11T14:29:46;-0.40;99.90
1205;DHT22;592;48.764;9.174;2022-12-11T14:32:18;-0.40;99.90
1205;DHT22;592;48.764;9.174;2022-12-11T14:34:46;-0.30;99.90
1205;DHT22;592;48.764;9.174;2022-12-11T14:37:16;-0.30;99.90
1205;DHT22;592;48.764;9.174;2022-12-11T14:39:52;-0.30;99.90
1205;DHT22;592;48.764;9.174;2022-12-11T14:42:22;-0.30;99.90
1205;DHT22;592;48.764;9.174;2022-12-11T14:44:54;-0.30;99.90
1205;DHT22;592;48.764;9.174;2022-12-11T14:47:24;-0.30;99.90
1205;DHT22;592;48.764;9.174;2022-12-11T14:49:55;-0.40;99.90
1205;DHT22;592;48.764;9.174;2022-12-11T14:52:26;-0.40;99.90
1205;DHT22;592;48.764;9.174;2022-12-11T14:54:59;-0.40;99.90
1205;DHT22;592;48.764;9.174;2022-12-11T14:57:29;-0.30;99.90
1205;DHT22;592;48.764;9.174;2022-12-11T14:59:58;-0.30;99.90
1205;DHT22;592;48.764;9.174;2022-12-11T15:02:27;-0.30;99.90
1205;DHT22;592;48.764;9.174;2022-12-11T15:05:14;-0.40;99.90
1205;DHT22;592;48.764;9.174;2022-12-11T15:07:55;-0.30;99.90
1205;DHT22;592;48.764;9.174;2022-12-11T15:10:36;-0.40;99.90
1205;DHT22;592;48.764;9.174;2022-12-11T15:13:05;-0.40;99.90
1205;DHT22;592;48.764;9.174;2022-12-11T15:15:37;-0.50;99.90
1205;DHT22;592;48.764;9.174;2022-12-11T15:18:17;-0.60;99.90
1205;DHT22;592;48.764;9.174;2022-12-11T15:20:49;-0.60;99.90
1205;DHT22;592;48.764;9.174;2022-12-11T15:23:17;-0.50;99.90
1205;DHT22;592;48.764;9.174;2022-12-11T15:25:50;-0.50;99.90
1205;DHT22;592;48.764;9.174;2022-12-11T15:28:26;-0.50;99.90
1205;DHT22;592;48.764;9.174;2022-12-11T15:30:56;-0.50;99.90
1205;DHT22;592;48.764;9.174;2022-12-11T15:33:23;-0.60;99.90
1205;DHT22;592;48.764;9.174;2022-12-11T15:36:00;-0.60;99.90
1205;DHT22;592;48.764;9.174;2022-12-11T15:38:32;-0.60;99.90
1205;DHT22;592;48.764;9.174;2022-12-11T15:41:01;-0.50;99.90
1205;DHT22;592;48.764;9.174;2022-12-11T15:43:30;-0.50;99.90
1205;DHT22;592;48.764;9.174;2022-12-11T15:45:57;-0.50;99.90
1205;DHT22;592;48.764;9.174;2022-12-11T15:48:24;-0.50;99.90
1205;DHT22;592;48.764;9.174;2022-12-11T15:50:51;-0.40;99.90
1205;DHT22;592;48.764;9.174;2022-12-11T15:53:17;-0.40;99.90
1205;DHT22;592;48.764;9.174;2022-12-11T15:55:45;-0.40;99.90
1205;DHT22;592;48.764;9.174;2022-12-11T15:58:16;-0.30;99.90
1205;DHT22;592;48.764;9.174;2022-12-11T16:00:44;-0.30;99.90
1205;DHT22;592;48.764;9.174;2022-12-11T16:03:12;-0.40;99.90
1205;DHT22;592;48.764;9.174;2022-12-11T16:05:40;-0.40;99.90
1205;DHT22;592;48.764;9.174;2022-12-11T16:08:08;-0.40;99.90
1205;DHT22;592;48.764;9.174;2022-12-11T16:10:35;-0.30;99.90
1205;DHT22;592;48.764;9.174;2022-12-11T16:13:02;-0.20;99.90
1205;DHT22;592;48.764;9.174;2022-12-11T16:15:30;-0.20;99.90
1205;DHT22;592;48.764;9.174;2022-12-11T16:18:01;-0.20;99.90
1205;DHT22;592;48.764;9.174;2022-12-11T16:20:29;-0.30;99.90
1205;DHT22;592;48.764;9.174;2022-12-11T16:22:56;-0.20;99.90
1205;DHT22;592;48.764;9.174;2022-12-11T16:25:23;-0.30;99.90
1205;DHT22;592;48.764;9.174;2022-12-11T16:27:50;-0.30;99.90
1205;DHT22;592;48.764;9.174;2022-12-11T16:30:20;-0.40;99.90
1205;DHT22;592;48.764;9.174;2022-12-11T16:32:48;-0.40;99.90
1205;DHT22;592;48.764;9.174;2022-12-11T16:35:15;-0.40;99.90
1205;DHT22;592;48.764;9.174;2022-12-11T16:37:43;-0.40;99.90
1205;DHT22;592;48.764;9.174;2022-12-11T16:40:11;-0.30;99.90